Time;durP1;ratioP1;P1;durP2;ratioP2;P2;SDS_P1;SDS_P2;PMS_P1;PMS_P2;Temp;Humidity;BMP_temperature;BMP_pressure;BME280_temperature;BME280_humidity;BME280_pressure;Samples;Min_cycle;Max_cycle;Signal;HPM_P1;HPM_P2
2023/05/14 00:00:59;;;;;;;527.00;328.60;;;;;;;10.03;100.00;101291.13;5026487;28;20409;-83
2023/05/14 00:03:25;;;;;;;840.50;306.93;;;;;;;9.95;100.00;101251.03;5023269;28;20863;-85
2023/05/14 00:05:51;;;;;;;1480.03;470.93;;;;;;;9.97;100.00;101306.88;5009958;28;20038;-84
2023/05/14 00:08:19;;;;;;;1922.75;587.90;;;;;;;9.91;100.00;101325.13;5006538;28;20067;-87
2023/05/14 00:10:44;;;;;;;412.02;244.25;;;;;;;9.79;100.00;101310.28;5011643;28;20465;-85
2023/05/14 00:13:09;;;;;;;371.00;185.93;;;;;;;9.84;100.00;101270.69;5000854;28;20052;-84
2023/05/14 00:15:35;;;;;;;595.53;286.60;;;;;;;9.89;100.00;101272.94;5013424;28;20038;-84
2023/05/14 00:18:00;;;;;;;418.17;229.80;;;;;;;9.89;100.00;101256.91;5016952;28;20424;-84
2023/05/14 00:20:26;;;;;;;471.10;206.63;;;;;;;9.91;100.00;101230.94;4998519;28;20055;-86
2023/05/14 00:22:51;;;;;;;201.37;141.53;;;;;;;9.85;100.00;101216.34;5019983;28;20099;-84
2023/05/14 00:25:16;;;;;;;339.10;178.27;;;;;;;9.88;100.00;101201.88;5010031;28;20042;-84
2023/05/14 00:27:42;;;;;;;314.07;186.80;;;;;;;9.85;100.00;101203.03;5011722;28;20858;-84
2023/05/14 00:30:07;;;;;;;102.53;89.27;;;;;;;9.80;100.00;101177.78;5016399;28;20022;-83
2023/05/14 00:32:33;;;;;;;826.92;344.98;;;;;;;9.80;100.00;101199.13;5024905;28;20052;-84
2023/05/14 00:34:58;;;;;;;970.77;368.97;;;;;;;9.76;100.00;101227.91;5027877;28;20661;-84
2023/05/14 00:37:24;;;;;;;602.93;288.63;;;;;;;9.65;100.00;101252.91;5011423;28;20516;-85
2023/05/14 00:39:49;;;;;;;1284.83;425.57;;;;;;;9.66;100.00;101270.59;5026275;28;20047;-83
2023/05/14 00:42:14;;;;;;;1297.67;398.60;;;;;;;9.55;100.00;101291.22;4991257;28;20030;-84
2023/05/14 00:44:40;;;;;;;760.73;301.47;;;;;;;9.54;100.00;101297.56;5024089;28;20135;-85
2023/05/14 00:47:06;;;;;;;1037.23;353.97;;;;;;;9.57;100.00;101305.25;5003139;28;20021;-84
2023/05/14 00:49:33;;;;;;;1240.18;418.85;;;;;;;9.56;100.00;101303.59;5027986;28;20083;-84
2023/05/14 00:51:59;;;;;;;1442.47;464.02;;;;;;;9.50;100.00;101311.19;5025775;28;20116;-85
2023/05/14 00:54:25;;;;;;;;;;;;;;;9.45;100.00;101347.22;5027708;28;20152;-83
2023/05/14 00:56:50;;;;;;;;;;;;;;;9.57;100.00;101364.75;5011091;28;20667;-84
2023/05/14 00:59:16;;;;;;;;;;;;;;;9.67;100.00;101368.28;5021254;28;19967;-84
2023/05/14 01:01:41;;;;;;;35.67;32.37;;;;;;;9.75;100.00;101372.06;5028013;28;19909;-85
2023/05/14 01:04:09;;;;;;;196.00;138.98;;;;;;;9.71;100.00;101345.66;5027191;28;20032;-85
2023/05/14 01:06:56;;;;;;;1166.70;445.88;;;;;;;9.84;100.00;101352.53;5011469;28;20049;-85
2023/05/14 01:09:42;;;;;;;79.68;66.32;;;;;;;10.00;100.00;101334.09;5014749;28;20037;-85
2023/05/14 01:12:36;;;;;;;302.85;179.02;;;;;;;9.97;100.00;101282.88;5019856;28;20079;-85
2023/05/14 01:15:18;;;;;;;420.42;234.70;;;;;;;9.97;100.00;101286.34;5024224;28;20034;-83
2023/05/14 01:17:49;;;;;;;178.90;122.05;;;;;;;9.99;100.00;101251.56;5019245;28;20068;-84
2023/05/14 01:20:15;;;;;;;218.50;141.32;;;;;;;10.04;100.00;101250.09;5007540;28;20089;-82
2023/05/14 01:22:40;;;;;;;1097.55;367.10;;;;;;;9.95;100.00;101248.34;5007189;28;20022;-83
2023/05/14 01:25:06;;;;;;;1274.60;430.27;;;;;;;9.85;100.00;101267.03;5010742;28;20208;-84
2023/05/14 01:27:39;;;;;;;1359.78;459.65;;;;;;;9.76;100.00;101277.72;4995887;28;20456;-85
2023/05/14 01:30:21;;;;;;;1738.50;496.20;;;;;;;9.63;100.00;101316.22;5025958;28;20103;-83
2023/05/14 01:32:50;;;;;;;1144.60;418.52;;;;;;;9.50;100.00;101326.31;5009734;28;20113;-84
2023/05/14 01:35:16;;;;;;;1561.75;470.23;;;;;;;9.39;100.00;101334.44;5017941;28;20083;-84
2023/05/14 01:37:43;;;;;;;1561.18;499.23;;;;;;;9.39;100.00;101345.09;5018538;28;20033;-86
2023/05/14 01:40:11;;;;;;;1996.07;633.22;;;;;;;9.34;100.00;101347.34;5007922;28;20041;-83
2023/05/14 01:42:37;;;;;;;1999.90;737.35;;;;;;;9.23;100.00;101346.53;5007186;28;20099;-83
2023/05/14 01:45:04;;;;;;;1938.82;586.80;;;;;;;9.18;100.00;101364.75;5009737;28;20081;-83
2023/05/14 01:47:29;;;;;;;;;;;;;;;9.15;100.00;101365.00;5011248;28;20485;-83
2023/05/14 01:49:55;;;;;;;;;;;;;;;9.07;100.00;101380.84;5001305;28;19913;-83
2023/05/14 01:52:20;;;;;;;840.70;298.80;;;;;;;9.00;100.00;101377.88;5025880;28;19923;-83
2023/05/14 01:54:46;;;;;;;1180.93;418.20;;;;;;;8.77;100.00;101366.59;5021556;28;20037;-85
2023/05/14 01:57:12;;;;;;;;;;;;;;;8.78;100.00;101386.09;5027298;28;20056;-85
2023/05/14 01:59:37;;;;;;;1027.25;413.95;;;;;;;8.77;100.00;101403.88;5027100;28;20365;-84
2023/05/14 02:02:02;;;;;;;1831.50;578.03;;;;;;;8.69;100.00;101418.88;5025905;28;20037;-84
2023/05/14 02:04:28;;;;;;;1736.07;499.53;;;;;;;8.64;100.00;101435.22;5004566;28;20356;-83
2023/05/14 02:06:53;;;;;;;1833.13;487.67;;;;;;;8.59;100.00;101432.09;5018243;28;20068;-83
2023/05/14 02:09:19;;;;;;;1949.20;596.80;;;;;;;8.59;100.00;101453.41;5018283;28;20032;-85
2023/05/14 02:11:45;;;;;;;1898.57;566.50;;;;;;;8.59;100.00;101442.75;5025763;28;20507;-83
2023/05/14 02:14:10;;;;;;;1765.60;526.80;;;;;;;8.55;100.00;101436.88;5018219;28;20049;-84
2023/05/14 02:16:36;;;;;;;1876.47;572.55;;;;;;;8.54;100.00;101419.19;5011083;28;20489;-85
2023/05/14 02:19:01;;;;;;;1999.90;658.80;;;;;;;8.50;100.00;101422.25;5009150;28;20030;-84
2023/05/14 02:21:26;;;;;;;1999.90;738.47;;;;;;;8.41;100.00;101422.09;5020395;28;20072;-84
2023/05/14 02:23:52;;;;;;;1999.90;843.47;;;;;;;8.38;100.00;101427.66;4991077;28;20061;-84
2023/05/14 02:26:17;;;;;;;1999.90;746.17;;;;;;;8.32;100.00;101416.69;5026246;28;20041;-83
2023/05/14 02:28:43;;;;;;;1999.90;721.23;;;;;;;8.28;100.00;101429.38;5017984;28;20346;-88
2023/05/14 02:31:14;;;;;;;1999.90;741.28;;;;;;;8.25;100.00;101440.28;4996064;28;20045;-84
2023/05/14 02:33:40;;;;;;;1999.90;711.78;;;;;;;8.12;100.00;101418.38;5025222;28;20025;-84
2023/05/14 02:36:06;;;;;;;1999.90;896.00;;;;;;;8.00;100.00;101430.88;5005264;28;20068;-85
2023/05/14 02:38:31;;;;;;;1999.90;790.47;;;;;;;8.03;100.00;101443.94;5029405;28;20511;-83
2023/05/14 02:40:56;;;;;;;1999.90;821.97;;;;;;;7.96;100.00;101435.63;4996984;28;20087;-84
2023/05/14 02:43:22;;;;;;;1999.90;885.20;;;;;;;7.94;100.00;101434.06;5020949;28;20060;-83
2023/05/14 02:45:47;;;;;;;1999.90;717.47;;;;;;;7.93;100.00;101435.88;5010455;28;20030;-83
2023/05/14 02:48:13;;;;;;;1999.90;715.93;;;;;;;7.94;100.00;101442.88;5018509;28;20375;-84
2023/05/14 02:50:38;;;;;;;1999.90;648.97;;;;;;;7.91;100.00;101434.31;5001612;28;20223;-83
2023/05/14 02:53:03;;;;;;;1999.90;591.73;;;;;;;7.77;100.00;101424.81;5020447;28;20485;-83
2023/05/14 02:55:29;;;;;;;1999.90;894.20;;;;;;;7.78;100.00;101431.84;5023368;28;20037;-85
2023/05/14 02:57:55;;;;;;;1999.90;759.80;;;;;;;7.77;100.00;101457.59;5009408;28;20037;-84
2023/05/14 03:00:21;;;;;;;1999.90;893.08;;;;;;;7.77;100.00;101468.22;5020094;28;20040;-86
2023/05/14 03:02:46;;;;;;;1999.90;836.78;;;;;;;7.76;100.00;101476.31;5020779;28;20038;-84
2023/05/14 03:05:14;;;;;;;1999.90;812.90;;;;;;;7.72;100.00;101453.59;5010100;28;20030;-83
2023/05/14 03:07:39;;;;;;;1999.90;786.45;;;;;;;7.72;100.00;101453.59;5014910;28;20061;-82
2023/05/14 03:10:05;;;;;;;1999.90;772.80;;;;;;;7.71;100.00;101462.56;5029426;28;20052;-84
2023/05/14 03:12:30;;;;;;;1999.90;834.45;;;;;;;7.71;100.00;101451.94;5025835;28;20064;-87
2023/05/14 03:14:56;;;;;;;1999.90;760.50;;;;;;;7.69;100.00;101446.72;5012964;28;20025;-84
2023/05/14 03:17:21;;;;;;;1999.90;716.70;;;;;;;7.68;100.00;101452.16;5004753;28;20057;-84
2023/05/14 03:19:47;;;;;;;1999.90;748.00;;;;;;;7.72;100.00;101443.81;5029364;28;20346;-84
2023/05/14 03:22:12;;;;;;;1999.90;687.57;;;;;;;7.71;100.00;101451.94;5012870;28;20108;-82
2023/05/14 03:24:39;;;;;;;1999.90;769.07;;;;;;;7.68;100.00;101449.50;5012776;28;20117;-84
2023/05/14 03:27:04;;;;;;;1999.90;807.42;;;;;;;7.64;100.00;101440.13;5023687;28;20045;-83
2023/05/14 03:29:30;;;;;;;1999.90;697.13;;;;;;;7.66;100.00;101451.47;5029161;28;20022;-82
2023/05/14 03:31:55;;;;;;;1999.90;669.80;;;;;;;7.71;100.00;101459.91;5018978;28;20033;-85
2023/05/14 03:34:21;;;;;;;1999.90;686.87;;;;;;;7.69;100.00;101444.06;5019654;28;20025;-84
2023/05/14 03:36:46;;;;;;;1999.90;764.70;;;;;;;7.65;100.00;101434.66;5025700;28;20049;-84
2023/05/14 03:39:14;;;;;;;1999.90;676.73;;;;;;;7.69;100.00;101443.25;5019832;28;20074;-83
2023/05/14 03:41:40;;;;;;;1999.90;611.85;;;;;;;7.68;100.00;101445.06;5017331;28;20034;-84
2023/05/14 03:44:05;;;;;;;1999.90;753.45;;;;;;;7.68;100.00;101444.19;5022130;28;20031;-85
2023/05/14 03:46:31;;;;;;;1999.90;693.93;;;;;;;7.71;100.00;101451.94;5025397;28;20049;-85
2023/05/14 03:48:56;;;;;;;1999.90;915.67;;;;;;;7.65;100.00;101444.44;5000598;28;20109;-85
2023/05/14 03:51:21;;;;;;;1999.90;591.60;;;;;;;7.65;100.00;101460.41;5014785;28;20043;-85
2023/05/14 03:53:47;;;;;;;1999.90;671.23;;;;;;;7.64;100.00;101472.00;5020278;28;20028;-83
2023/05/14 03:56:12;;;;;;;1999.90;757.85;;;;;;;7.70;100.00;101475.00;5013393;28;20497;-84
2023/05/14 03:58:38;;;;;;;1999.90;823.57;;;;;;;7.74;100.00;101465.78;5004335;28;20493;-83
2023/05/14 04:01:03;;;;;;;1999.90;747.33;;;;;;;7.85;100.00;101469.41;5011845;28;20041;-83
2023/05/14 04:03:29;;;;;;;1999.90;783.10;;;;;;;7.87;100.00;101465.63;5028357;28;20029;-83
2023/05/14 04:05:55;;;;;;;1999.90;847.75;;;;;;;7.93;100.00;101464.28;5026916;28;20737;-85
2023/05/14 04:08:20;;;;;;;1999.90;897.03;;;;;;;7.97;100.00;101450.59;5000402;28;20030;-86
2023/05/14 04:10:46;;;;;;;1999.90;921.50;;;;;;;8.11;100.00;101459.25;5025234;28;20469;-85
2023/05/14 04:13:11;;;;;;;1999.90;938.43;;;;;;;8.14;100.00;101457.16;5028346;28;20025;-83
2023/05/14 04:15:38;;;;;;;1999.90;837.58;;;;;;;8.27;100.00;101472.09;5023619;28;20034;-83
2023/05/14 04:18:04;;;;;;;1999.90;924.30;;;;;;;8.34;100.00;101460.81;5003339;28;20026;-83
2023/05/14 04:20:29;;;;;;;1999.90;810.33;;;;;;;8.41;100.00;101446.03;5020276;28;20477;-82
2023/05/14 04:22:55;;;;;;;1999.90;772.73;;;;;;;8.47;100.00;101433.16;5026467;28;20032;-83
2023/05/14 04:25:20;;;;;;;1999.90;943.00;;;;;;;8.59;100.00;101443.63;5020827;28;20096;-85
2023/05/14 04:27:46;;;;;;;1999.90;947.72;;;;;;;8.68;100.00;101479.22;5006646;28;20116;-85
2023/05/14 04:30:11;;;;;;;1999.90;851.97;;;;;;;8.73;100.00;101477.00;5029555;28;20525;-84
2023/05/14 04:32:37;;;;;;;1999.90;753.80;;;;;;;8.87;100.00;101478.47;5028235;28;20021;-84
2023/05/14 04:35:03;;;;;;;1999.90;900.28;;;;;;;9.00;100.00;101487.09;5028382;28;20525;-85
2023/05/14 04:37:29;;;;;;;1999.90;952.38;;;;;;;9.16;100.00;101491.91;5002520;28;20017;-84
2023/05/14 04:39:55;;;;;;;1999.90;950.45;;;;;;;9.30;100.00;101491.53;5028367;28;20052;-84
2023/05/14 04:42:24;;;;;;;1999.90;999.90;;;;;;;9.49;100.00;101495.22;5012627;28;20065;-85
2023/05/14 04:44:49;;;;;;;1999.90;999.90;;;;;;;9.59;100.00;101500.56;5026817;28;20490;-83
2023/05/14 04:47:15;;;;;;;1999.90;999.90;;;;;;;9.76;100.00;101502.56;5005011;28;20026;-83
2023/05/14 04:49:40;;;;;;;1999.90;999.90;;;;;;;9.90;100.00;101495.97;5012304;28;20068;-85
2023/05/14 04:52:05;;;;;;;1999.90;999.90;;;;;;;10.03;100.00;101482.38;5008517;28;20025;-85
2023/05/14 04:54:31;;;;;;;1999.90;999.90;;;;;;;10.19;100.00;101471.97;5028041;28;20047;-85
2023/05/14 04:56:56;;;;;;;1999.90;999.90;;;;;;;10.34;100.00;101459.88;5010914;28;20040;-85
2023/05/14 04:59:22;;;;;;;1999.90;999.90;;;;;;;10.66;100.00;101463.19;5026046;28;20030;-85
2023/05/14 05:01:47;;;;;;;1999.90;999.90;;;;;;;10.90;100.00;101466.19;4997328;28;20473;-85
2023/05/14 05:04:12;;;;;;;1999.90;809.23;;;;;;;11.25;100.00;101464.59;5026462;28;20458;-85
2023/05/14 05:06:38;;;;;;;1999.90;896.87;;;;;;;11.43;100.00;101397.81;5001694;28;20025;-84
2023/05/14 05:09:03;;;;;;;1999.90;833.23;;;;;;;11.68;100.00;101345.34;5011733;28;20049;-84
2023/05/14 05:11:29;;;;;;;1999.90;770.63;;;;;;;12.11;100.00;101345.53;5004220;28;20052;-85
2023/05/14 05:13:54;;;;;;;1999.90;788.50;;;;;;;12.47;100.00;101322.13;5021708;28;20037;-85
2023/05/14 05:16:19;;;;;;;1656.77;589.00;;;;;;;13.09;100.00;101290.50;5030674;28;20767;-85
2023/05/14 05:18:45;;;;;;;328.43;238.17;;;;;;;13.91;100.00;101167.00;5029755;28;20033;-86
2023/05/14 05:21:10;;;;;;;77.30;70.47;;;;;;;15.08;100.00;101029.81;5011750;28;20113;-87
2023/05/14 05:23:35;;;;;;;8.97;7.50;;;;;;;16.13;100.00;100806.94;5030508;28;20064;-87
2023/05/14 05:26:01;;;;;;;8.43;6.07;;;;;;;16.85;100.00;100509.88;5029330;28;20045;-87
2023/05/14 05:28:26;;;;;;;6.57;5.20;;;;;;;17.93;100.00;100262.75;5020749;28;20076;-84
2023/05/14 05:30:52;;;;;;;6.93;5.23;;;;;;;18.27;100.00;99955.22;4992424;28;20034;-83
2023/05/14 05:33:17;;;;;;;8.83;6.23;;;;;;;18.46;97.37;99742.47;5026874;28;20033;-84
2023/05/14 05:35:43;;;;;;;7.55;5.45;;;;;;;18.67;94.60;99792.34;5010580;28;20034;-85
2023/05/14 05:38:08;;;;;;;11.53;5.27;;;;;;;19.54;89.90;99718.22;5021876;28;20037;-85
2023/05/14 05:40:34;;;;;;;9.43;5.83;;;;;;;19.82;84.83;99544.81;5005417;28;20051;-84
2023/05/14 05:42:59;;;;;;;7.25;5.50;;;;;;;19.80;80.67;99345.75;5001320;28;20603;-84
2023/05/14 05:45:25;;;;;;;8.97;5.57;;;;;;;19.81;79.74;99415.09;5010476;28;20797;-85
2023/05/14 05:47:50;;;;;;;5.83;4.63;;;;;;;20.26;77.32;99419.28;5022660;28;20057;-85
2023/05/14 05:50:15;;;;;;;8.03;5.10;;;;;;;19.89;75.79;99305.47;4999234;28;20029;-85
2023/05/14 05:52:41;;;;;;;7.43;4.73;;;;;;;20.51;75.08;99518.97;5015953;28;20334;-84
2023/05/14 05:55:07;;;;;;;7.75;4.72;;;;;;;21.08;72.29;99447.00;5003618;28;20058;-84
2023/05/14 05:57:32;;;;;;;6.93;5.25;;;;;;;20.82;69.11;99164.75;5007429;28;20025;-84
2023/05/14 06:00:08;;;;;;;6.67;4.70;;;;;;;20.94;67.67;99180.78;5022237;28;20089;-85
2023/05/14 06:02:38;;;;;;;9.57;5.18;;;;;;;20.98;65.81;99113.25;5007431;28;20299;-84
2023/05/14 06:05:05;;;;;;;6.22;4.80;;;;;;;21.01;66.06;99257.31;5015817;28;20429;-86
2023/05/14 06:07:31;;;;;;;7.65;5.10;;;;;;;20.46;64.20;98965.94;5004102;28;20029;-86
2023/05/14 06:09:56;;;;;;;10.87;5.27;;;;;;;19.53;65.86;99075.88;5028142;28;20095;-85
2023/05/14 06:12:21;;;;;;;6.87;4.60;;;;;;;20.09;66.65;99397.75;5021360;28;20277;-87
2023/05/14 06:14:47;;;;;;;7.63;4.57;;;;;;;19.62;65.56;99173.66;5026022;28;20540;-85
2023/05/14 06:17:12;;;;;;;6.97;5.10;;;;;;;19.71;65.74;99310.19;5029767;28;20112;-86
2023/05/14 06:19:37;;;;;;;10.40;5.37;;;;;;;17.98;68.20;99223.25;5029400;28;20037;-87
2023/05/14 06:22:03;;;;;;;9.40;6.03;;;;;;;17.91;67.79;99228.81;5011772;28;20501;-87
2023/05/14 06:24:28;;;;;;;12.30;4.90;;;;;;;18.89;68.37;99649.22;5027042;28;20091;-86
2023/05/14 06:26:54;;;;;;;10.67;5.67;;;;;;;17.55;67.50;99148.34;5034878;28;20030;-87
2023/05/14 06:29:19;;;;;;;9.97;5.07;;;;;;;16.73;71.55;99541.22;5017234;28;20033;-86
2023/05/14 06:31:45;;;;;;;12.83;5.07;;;;;;;18.08;70.96;99897.75;5046884;28;20140;-86
2023/05/14 06:34:10;;;;;;;7.05;5.00;;;;;;;18.09;70.21;99826.47;5020447;28;20056;-87
2023/05/14 06:36:36;;;;;;;8.80;5.43;;;;;;;18.78;68.78;99829.38;5024529;28;20154;-86
2023/05/14 06:39:02;;;;;;;6.30;4.80;;;;;;;18.92;68.86;99844.28;5016878;28;20088;-87
2023/05/14 06:41:28;;;;;;;4.90;4.38;;;;;;;19.13;68.14;99825.75;5023599;28;20040;-86
2023/05/14 06:43:54;;;;;;;8.63;5.20;;;;;;;18.91;67.21;99647.09;5015065;28;20040;-86
2023/05/14 06:46:20;;;;;;;8.90;5.53;;;;;;;19.02;67.71;99783.34;5024665;28;20117;-87
2023/05/14 06:48:45;;;;;;;8.25;5.28;;;;;;;19.11;68.21;99911.75;5012122;28;20567;-86
2023/05/14 06:51:12;;;;;;;12.60;6.00;;;;;;;19.48;67.70;99977.19;5026403;28;20029;-86
2023/05/14 06:53:37;;;;;;;6.18;4.80;;;;;;;20.62;66.59;100095.59;5015874;28;20021;-85
2023/05/14 06:56:03;;;;;;;5.97;5.38;;;;;;;19.98;66.04;99829.44;5031481;28;20106;-85
2023/05/14 06:58:29;;;;;;;12.48;5.20;;;;;;;20.44;65.79;99935.84;5012783;28;20029;-84
2023/05/14 07:00:54;;;;;;;8.37;4.53;;;;;;;20.30;66.46;100026.66;5030221;28;20056;-84
2023/05/14 07:03:21;;;;;;;5.10;4.37;;;;;;;20.82;65.79;100040.88;5030026;28;20087;-84
2023/05/14 07:05:46;;;;;;;9.10;5.13;;;;;;;21.43;64.48;100049.13;5008365;28;20106;-86
2023/05/14 07:08:12;;;;;;;6.55;5.15;;;;;;;21.61;64.52;100047.16;5026810;28;20022;-85
2023/05/14 07:10:38;;;;;;;7.93;5.03;;;;;;;21.83;62.85;99914.03;5011054;28;20033;-85
2023/05/14 07:13:04;;;;;;;7.38;4.70;;;;;;;22.31;62.90;100059.13;5019965;28;20032;-81
2023/05/14 07:15:29;;;;;;;4.93;4.25;;;;;;;22.25;62.46;99965.00;5009608;28;20034;-82
2023/05/14 07:17:55;;;;;;;10.73;5.55;;;;;;;22.29;61.55;99869.06;5026056;28;20036;-82
2023/05/14 07:20:22;;;;;;;6.25;4.93;;;;;;;21.84;61.00;99660.28;5020409;28;20041;-82
2023/05/14 07:22:51;;;;;;;9.63;5.70;;;;;;;20.93;60.47;99274.13;5004118;28;20599;-82
2023/05/14 07:25:17;;;;;;;8.52;5.85;;;;;;;20.74;62.33;99636.34;5020717;28;20037;-82
2023/05/14 07:27:42;;;;;;;13.00;6.40;;;;;;;19.77;63.47;99520.38;5028685;28;20029;-81
2023/05/14 07:30:08;;;;;;;10.87;6.40;;;;;;;20.90;62.50;99781.91;5008874;28;20037;-83
2023/05/14 07:32:33;;;;;;;11.23;6.68;;;;;;;19.07;63.50;99329.00;5012974;28;20272;-82
2023/05/14 07:34:58;;;;;;;10.57;6.40;;;;;;;18.38;65.32;99486.13;4996244;28;20038;-86
2023/05/14 07:37:27;;;;;;;14.30;6.57;;;;;;;18.44;66.59;99675.13;5025967;28;20029;-80
2023/05/14 07:39:52;;;;;;;7.07;5.25;;;;;;;18.73;67.10;99829.22;5032818;28;20037;-80
2023/05/14 07:42:18;;;;;;;10.17;6.03;;;;;;;19.47;66.39;99974.72;5018420;28;20032;-81
2023/05/14 07:44:43;;;;;;;8.73;6.20;;;;;;;19.92;65.70;100020.03;5016751;28;20397;-85
2023/05/14 07:47:09;;;;;;;8.47;5.33;;;;;;;18.88;66.48;99755.75;5022432;28;20381;-85
2023/05/14 07:49:35;;;;;;;9.40;5.93;;;;;;;18.75;66.99;99817.16;5029079;28;20063;-84
2023/05/14 07:52:00;;;;;;;13.07;6.40;;;;;;;19.66;66.63;100048.47;5017594;28;20061;-87
2023/05/14 07:54:25;;;;;;;15.93;5.53;;;;;;;20.03;66.18;100112.09;5027275;28;20037;-85
2023/05/14 07:56:51;;;;;;;7.33;5.47;;;;;;;21.03;65.42;100291.69;5010047;28;20280;-84
2023/05/14 07:59:16;;;;;;;6.77;4.77;;;;;;;21.28;64.00;100103.16;5021301;28;20045;-85
2023/05/14 08:01:41;;;;;;;7.03;4.93;;;;;;;20.73;63.31;99878.81;5021291;28;20544;-84
2023/05/14 08:04:07;;;;;;;5.53;5.03;;;;;;;21.31;61.71;99854.84;5009728;28;20453;-84
2023/05/14 08:06:32;;;;;;;4.80;4.30;;;;;;;20.35;61.94;99549.72;5007463;28;20053;-84
2023/05/14 08:08:58;;;;;;;6.65;4.57;;;;;;;20.11;62.64;99560.03;5026919;28;20080;-85
2023/05/14 08:11:23;;;;;;;7.57;5.57;;;;;;;19.86;62.53;99525.38;5024715;28;20026;-83
2023/05/14 08:13:49;;;;;;;8.07;5.03;;;;;;;20.84;62.77;99956.56;5018394;28;20303;-84
2023/05/14 08:16:14;;;;;;;6.90;4.67;;;;;;;21.08;60.63;99648.59;5009321;28;20037;-85
2023/05/14 08:18:39;;;;;;;8.47;5.03;;;;;;;20.84;60.80;99557.78;5014786;28;20090;-85
2023/05/14 08:21:05;;;;;;;7.10;4.50;;;;;;;21.31;61.50;99912.66;5013790;28;20033;-85
2023/05/14 08:23:30;;;;;;;6.13;3.90;;;;;;;22.66;59.54;100033.31;5028215;28;20037;-87
2023/05/14 08:25:56;;;;;;;6.30;3.90;;;;;;;22.72;53.62;99169.91;5011423;28;20087;-85
2023/05/14 08:28:21;;;;;;;5.70;3.53;;;;;;;21.85;51.84;98548.19;5028525;28;20045;-85
2023/05/14 08:30:46;;;;;;;6.60;3.40;;;;;;;21.15;51.65;98437.38;5021766;28;20053;-85
2023/05/14 08:33:12;;;;;;;6.07;3.57;;;;;;;20.15;52.98;98345.56;5017852;28;20438;-85
2023/05/14 08:35:37;;;;;;;5.30;3.50;;;;;;;20.03;53.29;98435.31;5004371;28;20076;-86
2023/05/14 08:38:05;;;;;;;4.43;3.07;;;;;;;21.07;53.74;98949.66;5019035;28;20058;-85
2023/05/14 08:40:31;;;;;;;5.65;3.65;;;;;;;20.73;50.91;98306.03;5010160;28;20509;-85
2023/05/14 08:42:57;;;;;;;7.72;3.65;;;;;;;20.27;52.15;98334.38;5012885;28;20034;-84
2023/05/14 08:45:32;;;;;;;5.72;4.07;;;;;;;20.82;51.63;98553.78;5027061;28;20061;-85
2023/05/14 08:48:00;;;;;;;5.80;3.60;;;;;;;21.03;51.41;98576.13;5021735;28;20041;-86
2023/05/14 08:50:25;;;;;;;5.28;3.65;;;;;;;20.70;52.24;98631.94;4992877;28;20795;-85
2023/05/14 08:52:52;;;;;;;6.63;3.80;;;;;;;20.65;50.94;98402.38;5014648;28;20046;-85
2023/05/14 08:55:18;;;;;;;4.00;3.45;;;;;;;20.79;51.85;98688.03;5019248;28;20401;-85
2023/05/14 08:57:44;;;;;;;7.50;3.28;;;;;;;21.89;50.14;98788.25;5003101;28;20033;-85
2023/05/14 09:00:10;;;;;;;6.40;3.72;;;;;;;21.72;48.75;98470.94;5008419;28;20013;-84
2023/05/14 09:02:38;;;;;;;4.68;3.67;;;;;;;21.79;49.95;98783.72;5009904;28;20054;-85
2023/05/14 09:05:08;;;;;;;8.40;3.35;;;;;;;22.37;48.99;98735.94;5026484;28;20472;-86
2023/05/14 09:07:33;;;;;;;6.90;3.63;;;;;;;21.16;48.18;98160.34;5025399;28;20037;-86
2023/05/14 09:10:00;;;;;;;9.05;3.88;;;;;;;22.17;49.22;98821.97;5010999;28;20036;-85
2023/05/14 09:12:26;;;;;;;4.93;3.63;;;;;;;22.91;47.66;98768.16;5013091;28;20054;-86
2023/05/14 09:14:51;;;;;;;5.33;3.00;;;;;;;22.40;45.56;98159.03;5016153;28;20113;-87
2023/05/14 09:17:17;;;;;;;13.23;3.23;;;;;;;23.54;46.34;98810.59;5038063;28;20743;-87
2023/05/14 09:19:46;;;;;;;10.13;3.50;;;;;;;23.90;43.69;98397.81;5001126;28;20037;-87
2023/05/14 09:22:13;;;;;;;4.63;3.15;;;;;;;24.50;45.04;98846.72;5009444;28;20508;-87
2023/05/14 09:24:39;;;;;;;4.22;3.13;;;;;;;23.96;42.79;98220.28;5008382;28;20109;-86
2023/05/14 09:27:05;;;;;;;5.80;3.38;;;;;;;23.46;42.67;98092.44;5009283;28;20061;-86
2023/05/14 09:29:31;;;;;;;8.25;3.25;;;;;;;24.98;42.58;98691.59;5012873;28;20037;-85
2023/05/14 09:31:58;;;;;;;7.50;2.67;;;;;;;24.67;41.59;98286.88;5028524;28;20129;-86
2023/05/14 09:34:32;;;;;;;3.92;3.17;;;;;;;23.59;40.08;97555.09;5012396;28;20056;-86
2023/05/14 09:36:57;;;;;;;8.05;3.05;;;;;;;23.67;42.20;98189.94;5025023;28;20037;-84
2023/05/14 09:39:24;;;;;;;7.23;3.07;;;;;;;25.11;40.94;98566.25;5003263;28;20080;-85
2023/05/14 09:41:53;;;;;;;4.50;2.83;;;;;;;24.08;38.76;97649.34;5001422;28;20030;-86
2023/05/14 09:44:19;;;;;;;9.32;3.88;;;;;;;25.10;37.41;97783.94;5030376;28;20025;-84
2023/05/14 09:46:45;;;;;;;6.63;3.45;;;;;;;24.56;36.81;97419.09;5023268;28;20041;-84
2023/05/14 09:49:11;;;;;;;9.30;4.03;;;;;;;25.00;36.96;97771.47;5024579;28;20051;-85
2023/05/14 09:51:37;;;;;;;6.03;3.17;;;;;;;23.10;37.53;97037.66;5021571;28;20073;-84
2023/05/14 09:54:03;;;;;;;;;;;;;;;22.72;37.87;97109.28;5015672;28;20037;-84
2023/05/14 09:56:28;;;;;;;10.02;3.40;;;;;;;24.29;38.27;97914.63;5029951;28;19933;-84
2023/05/14 09:58:54;;;;;;;10.20;2.92;;;;;;;23.98;37.46;97664.13;5029665;28;20167;-84
2023/05/14 10:01:21;;;;;;;6.13;3.05;;;;;;;25.03;37.83;98210.25;5026830;28;20096;-83
2023/05/14 10:03:47;;;;;;;13.23;3.53;;;;;;;24.21;35.58;97155.84;5014351;28;20118;-84
2023/05/14 10:06:16;;;;;;;6.05;3.45;;;;;;;25.51;36.61;98141.03;5020401;28;20030;-83
2023/05/14 10:08:44;;;;;;;6.20;3.03;;;;;;;26.18;35.59;98146.97;5014450;28;20116;-84
2023/05/14 10:11:13;;;;;;;6.18;3.10;;;;;;;26.10;35.43;98012.69;5034949;28;20036;-84
2023/05/14 10:13:45;;;;;;;4.35;3.05;;;;;;;26.80;35.99;98351.56;5012179;28;20112;-84
2023/05/14 10:16:20;;;;;;;6.53;3.25;;;;;;;27.49;34.51;98312.09;5010918;28;20120;-84
2023/05/14 10:18:51;;;;;;;5.88;3.08;;;;;;;26.03;34.75;97804.66;5023096;28;20041;-85
2023/05/14 10:21:19;;;;;;;4.63;2.70;;;;;;;26.31;33.40;97618.91;5026730;28;20034;-85
2023/05/14 10:23:45;;;;;;;2.83;2.20;;;;;;;25.50;32.55;96967.84;5023331;28;20056;-85
2023/05/14 10:26:11;;;;;;;;;;;;;;;25.86;33.29;97427.72;4999580;28;20029;-85
2023/05/14 10:28:36;;;;;;;9.30;3.50;;;;;;;25.92;33.70;97590.34;5031657;28;19909;-86
2023/05/14 10:31:02;;;;;;;6.15;3.65;;;;;;;25.53;34.13;97502.38;5028388;28;20056;-85
2023/05/14 10:33:27;;;;;;;7.70;2.70;;;;;;;23.94;34.09;96803.13;5014067;28;20101;-85
2023/05/14 10:35:58;;;;;;;4.55;3.00;;;;;;;24.07;35.20;97258.91;5011469;28;20038;-85
2023/05/14 10:38:34;;;;;;;6.70;2.95;;;;;;;24.72;35.30;97585.66;5026062;28;20048;-86
2023/05/14 10:41:02;;;;;;;7.20;2.95;;;;;;;24.71;35.48;97677.59;5005011;28;20060;-87
2023/05/14 10:43:29;;;;;;;6.32;2.70;;;;;;;25.54;34.91;97956.56;5010685;28;20017;-86
2023/05/14 10:45:59;;;;;;;9.18;3.85;;;;;;;23.82;35.04;97091.88;5011971;28;20053;-87
2023/05/14 10:48:25;;;;;;;6.25;2.92;;;;;;;23.42;35.52;97075.31;5027494;28;20030;-84
2023/05/14 10:50:50;;;;;;;5.10;3.10;;;;;;;24.03;35.21;97399.66;5022273;28;20461;-83
2023/05/14 10:53:16;;;;;;;6.40;2.83;;;;;;;24.50;35.57;97690.41;5013044;28;20030;-86
2023/05/14 10:55:43;;;;;;;6.05;3.22;;;;;;;22.85;36.88;97199.09;5022371;28;20070;-86
2023/05/14 10:58:09;;;;;;;;;;;;;;;22.94;37.25;97418.25;5011228;28;20049;-86
2023/05/14 11:00:35;;;;;;;9.23;3.22;;;;;;;23.66;37.48;97821.47;5010758;28;19940;-86
2023/05/14 11:03:02;;;;;;;4.43;2.50;;;;;;;24.49;37.42;98213.19;5021488;28;20493;-88
2023/05/14 11:05:28;;;;;;;5.30;2.95;;;;;;;25.14;38.07;98582.00;5013170;28;20036;-87
2023/05/14 11:07:56;;;;;;;4.30;2.93;;;;;;;26.22;36.77;98713.97;5026738;28;20037;-87